createdAt,value
2019-03-13T00:01:03.722Z,99864.46
2019-03-13T00:03:32.152Z,99861.50
2019-03-13T00:06:00.605Z,99860.16
2019-03-13T00:08:29.076Z,99850.83
2019-03-13T00:10:57.637Z,99860.97
2019-03-13T00:13:26.123Z,99860.98
2019-03-13T00:15:54.672Z,99875.39
2019-03-13T00:18:23.097Z,99870.29
2019-03-13T00:20:51.609Z,99868.16
2019-03-13T00:23:19.997Z,99866.04
2019-03-13T00:25:48.427Z,99859.23
2019-03-13T00:28:16.958Z,99857.96
2019-03-13T00:30:45.357Z,99869.39
2019-03-13T00:33:13.847Z,99872.36
2019-03-13T00:35:42.244Z,99871.95
2019-03-13T00:38:10.675Z,99871.92
2019-03-13T00:40:39.074Z,99874.07
2019-03-13T00:43:07.468Z,99871.09
2019-03-13T00:45:35.875Z,99868.09
2019-03-13T00:48:04.431Z,99868.51
2019-03-13T00:50:33.380Z,99871.92
2019-03-13T00:53:01.836Z,99859.23
2019-03-13T00:55:30.251Z,99872.78
2019-03-13T00:57:58.721Z,99872.36
2019-03-13T01:00:28.824Z,99867.27
2019-03-13T01:02:57.238Z,99865.55
2019-03-13T01:05:42.085Z,99860.48
2019-03-13T01:08:10.485Z,99870.22
2019-03-13T01:10:38.910Z,99865.58
2019-03-13T01:13:07.441Z,99869.80
2019-03-13T01:15:35.826Z,99871.53
2019-03-13T01:18:04.356Z,99872.41
2019-03-13T01:20:32.770Z,99868.16
2019-03-13T01:23:01.225Z,99869.45
2019-03-13T01:25:29.647Z,99854.64
2019-03-13T01:27:58.051Z,99859.33
2019-03-13T01:30:28.143Z,99853.81
2019-03-13T01:32:58.218Z,99849.17
2019-03-13T01:35:28.315Z,99859.80
2019-03-13T01:37:56.723Z,99863.61
2019-03-13T01:40:25.174Z,99857.70
2019-03-13T01:42:53.611Z,99857.72
2019-03-13T01:45:22.082Z,99859.02
2019-03-13T01:47:50.482Z,99858.19
2019-03-13T01:50:18.958Z,99858.63
2019-03-13T01:52:47.411Z,99858.64
2019-03-13T01:55:15.820Z,99857.00
2019-03-13T01:57:44.226Z,99856.17
2019-03-13T02:00:14.552Z,99845.20
2019-03-13T02:02:42.950Z,99842.64
2019-03-13T02:05:11.612Z,99849.41
2019-03-13T02:07:40.011Z,99838.88
2019-03-13T02:10:10.913Z,99841.42
2019-03-13T02:12:39.279Z,99835.03
2019-03-13T02:15:12.630Z,99843.02
2019-03-13T02:17:41.055Z,99833.67
2019-03-13T02:20:10.888Z,99827.32
2019-03-13T02:22:39.677Z,99830.30
2019-03-13T02:25:12.999Z,99828.20
2019-03-13T02:27:41.418Z,99835.77
2019-03-13T02:30:18.355Z,99837.50
2019-03-13T02:32:47.743Z,99834.56
2019-03-13T02:35:16.248Z,99834.96
2019-03-13T02:37:44.791Z,99830.28
2019-03-13T02:40:16.766Z,99832.44
2019-03-13T02:42:45.245Z,99828.28
2019-03-13T02:45:14.782Z,99822.91
2019-03-13T02:47:43.274Z,99833.92
2019-03-13T02:50:13.924Z,99825.91
2019-03-13T02:52:42.367Z,99837.33
2019-03-13T02:55:11.425Z,99824.20
2019-03-13T02:57:39.878Z,99825.11
2019-03-13T03:00:15.249Z,99833.17
2019-03-13T03:02:50.870Z,99825.13
2019-03-13T03:05:19.324Z,99828.19
2019-03-13T03:07:47.783Z,99825.27
2019-03-13T03:10:16.269Z,99807.56
2019-03-13T03:12:44.818Z,99799.17
2019-03-13T03:15:15.879Z,99802.56
2019-03-13T03:17:44.420Z,99811.52
2019-03-13T03:20:18.117Z,99805.61
2019-03-13T03:22:46.556Z,99814.94
2019-03-13T03:25:16.499Z,99798.00
2019-03-13T03:27:45.000Z,99805.64
2019-03-13T03:30:23.729Z,99797.98
2019-03-13T03:32:52.464Z,99809.84
2019-03-13T03:35:21.210Z,99799.15
2019-03-13T03:37:49.618Z,99800.78
2019-03-13T03:40:22.410Z,99805.00
2019-03-13T03:42:49.564Z,99800.30
2019-03-13T03:45:18.683Z,99792.64
2019-03-13T03:47:47.232Z,99795.60
2019-03-13T03:50:16.910Z,99797.23
2019-03-13T03:52:45.636Z,99807.47
2019-03-13T03:55:15.767Z,99814.67
2019-03-13T03:57:44.257Z,99826.94
2019-03-13T04:00:18.129Z,99799.83
2019-03-13T04:02:46.606Z,99797.63
2019-03-13T04:05:15.100Z,99811.63
2019-03-13T04:07:43.558Z,99812.02
2019-03-13T04:10:14.086Z,99814.52
2019-03-13T04:12:42.643Z,99820.91
2019-03-13T04:15:15.452Z,99815.48
2019-03-13T04:17:44.134Z,99818.41
2019-03-13T04:20:14.752Z,99817.65
2019-03-13T04:22:43.403Z,99838.86
2019-03-13T04:25:26.712Z,99827.91
2019-03-13T04:27:55.482Z,99822.84
2019-03-13T04:30:23.893Z,99815.64
2019-03-13T04:32:52.275Z,99817.39
2019-03-13T04:35:20.703Z,99825.52
2019-03-13T04:37:49.106Z,99817.06
2019-03-13T04:40:17.509Z,99818.79
2019-03-13T04:42:45.921Z,99826.42
2019-03-13T04:45:14.407Z,99812.91
2019-03-13T04:47:42.878Z,99807.80
2019-03-13T04:50:12.752Z,99808.64
2019-03-13T04:52:41.243Z,99804.88
2019-03-13T04:55:11.585Z,99808.22
2019-03-13T04:57:40.004Z,99814.59
2019-03-13T05:00:14.016Z,99817.17
2019-03-13T05:02:42.417Z,99816.32
2019-03-13T05:05:30.478Z,99811.67
2019-03-13T05:07:58.912Z,99816.41
2019-03-13T05:10:27.307Z,99809.67
2019-03-13T05:12:55.916Z,99802.52
2019-03-13T05:15:24.297Z,99809.70
2019-03-13T05:17:52.685Z,99796.99
2019-03-13T05:20:21.116Z,99802.53
2019-03-13T05:22:49.515Z,99813.13
2019-03-13T05:25:19.172Z,99794.48
2019-03-13T05:27:47.915Z,99810.99
2019-03-13T05:30:16.455Z,99799.57
2019-03-13T05:32:44.867Z,99799.97
2019-03-13T05:35:13.282Z,99790.66
2019-03-13T05:37:41.770Z,99790.27
2019-03-13T05:40:11.963Z,99794.47
2019-03-13T05:42:40.453Z,99789.80
2019-03-13T05:45:09.583Z,99790.77
2019-03-13T05:47:38.016Z,99803.47
2019-03-13T05:50:09.450Z,99793.67
2019-03-13T05:52:37.853Z,99806.36
2019-03-13T05:55:06.944Z,99792.84
2019-03-13T05:57:35.364Z,99780.59
2019-03-13T06:00:06.369Z,99792.02
2019-03-13T06:02:34.765Z,99796.23
2019-03-13T06:05:03.350Z,99786.50
2019-03-13T06:07:31.787Z,99783.55
2019-03-13T06:10:00.491Z,99779.32
2019-03-13T06:12:28.965Z,99784.50
2019-03-13T06:14:57.380Z,99811.62
2019-03-13T06:17:25.802Z,99785.36
2019-03-13T06:19:54.202Z,99785.32
2019-03-13T06:22:22.597Z,99794.22
2019-03-13T06:24:51.020Z,99791.27
2019-03-13T06:27:19.479Z,99791.67
2019-03-13T06:29:47.856Z,99795.91
2019-03-13T06:32:16.409Z,99796.77
2019-03-13T06:34:44.806Z,99784.47
2019-03-13T06:37:13.217Z,99782.72
2019-03-13T06:39:41.749Z,99795.01
2019-03-13T06:42:10.174Z,99791.58
2019-03-13T06:44:38.593Z,99793.19
2019-03-13T06:47:07.034Z,99806.29
2019-03-13T06:49:35.429Z,99808.83
2019-03-13T06:52:03.921Z,99806.29
2019-03-13T06:54:32.352Z,99804.19
2019-03-13T06:57:00.767Z,99794.03
2019-03-13T06:59:36.990Z,99801.20
2019-03-13T07:02:09.797Z,99786.39
2019-03-13T07:04:48.594Z,99779.61
2019-03-13T07:07:21.301Z,99796.96
2019-03-13T07:09:54.078Z,99799.50
2019-03-13T07:12:26.776Z,99776.97
2019-03-13T07:15:05.834Z,99793.47
2019-03-13T07:17:35.977Z,99788.37
2019-03-13T07:20:11.555Z,99776.49
2019-03-13T07:22:47.378Z,99775.20
2019-03-13T07:25:17.514Z,99784.94
2019-03-13T07:27:56.616Z,99778.97
2019-03-13T07:30:29.613Z,99308.47
2019-03-13T07:33:02.402Z,99770.51
2019-03-13T07:35:49.195Z,99767.13
2019-03-13T07:38:24.991Z,99764.17
2019-03-13T07:40:57.745Z,99769.70
2019-03-13T07:43:42.818Z,99758.30
2019-03-13T07:46:12.921Z,99767.27
2019-03-13T07:48:42.932Z,99769.48
2019-03-13T07:51:19.166Z,99765.29
2019-03-13T07:53:55.238Z,99774.63
2019-03-13T07:56:41.532Z,99769.55
2019-03-13T07:59:23.608Z,99772.97
2019-03-13T08:02:08.827Z,99769.20
2019-03-13T08:04:47.918Z,99766.19
2019-03-13T08:07:17.987Z,99774.28
2019-03-13T08:10:04.278Z,99774.31
2019-03-13T08:12:34.315Z,99777.26
2019-03-13T08:15:04.445Z,99775.07
2019-03-13T08:17:46.691Z,99775.45
2019-03-13T08:20:32.950Z,99770.34
2019-03-13T08:23:05.771Z,99778.82
2019-03-13T08:25:47.897Z,99784.75
2019-03-13T08:28:34.105Z,99768.23
2019-03-13T08:31:04.309Z,99770.31
2019-03-13T08:33:43.341Z,99769.74
2019-03-13T08:36:25.578Z,99767.60
2019-03-13T08:39:07.912Z,99761.64
2019-03-13T08:41:53.478Z,99756.59
2019-03-13T08:44:26.248Z,99757.47
2019-03-13T08:47:12.918Z,99755.46
2019-03-13T08:49:55.222Z,99753.35
2019-03-13T08:52:28.289Z,99763.13
2019-03-13T08:55:01.277Z,99765.26
2019-03-13T08:57:40.049Z,99769.91
2019-03-13T09:00:25.386Z,99755.09
2019-03-13T09:02:55.450Z,99754.69
2019-03-13T09:05:28.612Z,99759.34
2019-03-13T09:08:07.407Z,99758.95
2019-03-13T09:10:37.472Z,99760.67
2019-03-13T09:13:13.468Z,99754.75
2019-03-13T09:15:59.930Z,99757.34
2019-03-13T09:18:30.011Z,99743.39
2019-03-13T09:21:06.122Z,99748.89
2019-03-13T09:23:39.435Z,99746.35
2019-03-13T09:26:12.506Z,99742.97
2019-03-13T09:28:54.895Z,99741.70
2019-03-13T09:31:28.166Z,99737.05
2019-03-13T09:34:04.441Z,99729.42
2019-03-13T09:36:37.216Z,99726.03
2019-03-13T09:39:10.917Z,99729.44
2019-03-13T09:41:49.695Z,99725.23
2019-03-13T09:44:35.012Z,99722.28
2019-03-13T09:47:20.263Z,99723.58
2019-03-13T09:49:50.311Z,99721.00
2019-03-13T09:52:20.433Z,99720.54
2019-03-13T09:54:56.454Z,99728.55
2019-03-13T09:57:38.566Z,99713.63
2019-03-13T10:00:14.011Z,99721.15
2019-03-13T10:02:53.068Z,99724.84
2019-03-13T10:05:29.140Z,99721.84
2019-03-13T10:08:04.893Z,99725.64
2019-03-13T10:10:44.126Z,99723.53
2019-03-13T10:13:20.167Z,99723.09
2019-03-13T10:15:50.271Z,99713.30
2019-03-13T10:18:28.849Z,99719.67
2019-03-13T10:20:58.935Z,99709.52
2019-03-13T10:23:28.983Z,99706.96
2019-03-13T10:26:04.876Z,99718.84
2019-03-13T10:28:50.004Z,99713.84
2019-03-13T10:31:20.323Z,99707.59
2019-03-13T10:33:53.076Z,99716.50
2019-03-13T10:36:23.257Z,99719.87
2019-03-13T10:39:09.627Z,99713.13
2019-03-13T10:41:49.002Z,99705.93
2019-03-13T10:44:21.797Z,99710.20
2019-03-13T10:46:51.852Z,99710.20
2019-03-13T10:49:31.003Z,99720.41
2019-03-13T10:52:16.133Z,99720.02
2019-03-13T10:54:49.015Z,99699.73
2019-03-13T10:57:19.056Z,99718.40
2019-03-13T10:59:52.149Z,99701.89
2019-03-13T11:02:34.170Z,99708.25
2019-03-13T11:05:10.042Z,99700.64
2019-03-13T11:07:46.085Z,99699.01
2019-03-13T11:10:32.511Z,99706.69
2019-03-13T11:13:02.545Z,99699.92
2019-03-13T11:15:49.031Z,99702.45
2019-03-13T11:18:19.077Z,99706.70
2019-03-13T11:20:55.135Z,99699.08
2019-03-13T11:23:27.698Z,99693.16
2019-03-13T11:26:13.153Z,99700.78
2019-03-13T11:28:45.963Z,99708.01
2019-03-13T11:31:16.090Z,99704.23
2019-03-13T11:33:55.363Z,99711.89
2019-03-13T11:36:37.461Z,99702.54
2019-03-13T11:39:08.749Z,99705.09
2019-03-13T11:41:38.854Z,99703.81
2019-03-13T11:44:11.681Z,99703.83
2019-03-13T11:46:56.733Z,99721.21
2019-03-13T11:49:26.868Z,99694.99
2019-03-13T11:52:02.722Z,99677.62
2019-03-13T11:54:49.128Z,99698.82
2019-03-13T11:57:21.823Z,99693.74
2019-03-13T11:59:54.434Z,99680.62
2019-03-13T12:02:42.610Z,99682.80
2019-03-13T12:05:29.886Z,99692.62
2019-03-13T12:08:02.505Z,99680.33
2019-03-13T12:10:32.632Z,99673.98
2019-03-13T12:13:02.841Z,99680.37
2019-03-13T12:15:36.056Z,99666.39
2019-03-13T12:18:12.428Z,99674.87
2019-03-13T12:20:45.031Z,99661.73
2019-03-13T12:23:15.159Z,99657.05
2019-03-13T12:25:47.642Z,99657.48
2019-03-13T12:28:23.428Z,99654.95
2019-03-13T12:31:09.818Z,99660.03
2019-03-13T12:33:39.851Z,99659.58
2019-03-13T12:36:12.922Z,99658.63
2019-03-13T12:39:00.805Z,99652.60
2019-03-13T12:41:42.891Z,99655.06
2019-03-13T12:44:13.003Z,99656.70
2019-03-13T12:46:46.359Z,99656.20
2019-03-13T12:49:33.002Z,99648.97
2019-03-13T12:52:05.777Z,99640.02
2019-03-13T12:54:35.814Z,99635.80
2019-03-13T12:57:18.050Z,99634.52
2019-03-13T12:59:50.790Z,99634.95
2019-03-13T13:02:35.919Z,99302.28
2019-03-13T13:05:13.833Z,99649.34
2019-03-13T13:08:00.031Z,99641.32
2019-03-13T13:10:38.879Z,99645.58
2019-03-13T13:13:26.474Z,99654.47
2019-03-13T13:16:12.692Z,99648.11
2019-03-13T13:18:51.723Z,99643.41
2019-03-13T13:21:20.280Z,99640.45
2019-03-13T13:23:48.755Z,99641.30
2019-03-13T13:26:17.547Z,99634.09
2019-03-13T13:28:45.971Z,99651.09
2019-03-13T13:31:14.493Z,99643.03
2019-03-13T13:33:42.915Z,99641.34
2019-03-13T13:36:11.449Z,99635.81
2019-03-13T13:38:39.871Z,99629.06
2019-03-13T13:41:08.340Z,99643.47
2019-03-13T13:43:36.750Z,99627.37
2019-03-13T13:46:20.462Z,99626.59
2019-03-13T13:48:48.864Z,99615.62
2019-03-13T13:51:17.310Z,99626.24
2019-03-13T13:53:45.693Z,99615.25
2019-03-13T13:56:14.180Z,99618.69
2019-03-13T13:58:42.576Z,99617.44
2019-03-13T14:01:10.994Z,99619.98
2019-03-13T14:03:39.391Z,99600.06
2019-03-13T14:06:07.809Z,99599.64
2019-03-13T14:08:36.219Z,99601.75
2019-03-13T14:11:04.682Z,99097.20
2019-03-13T14:13:33.087Z,99596.25
2019-03-13T14:16:01.560Z,99590.75
2019-03-13T14:18:29.974Z,99601.44
2019-03-13T14:20:58.449Z,99597.64
2019-03-13T14:23:26.878Z,99598.48
2019-03-13T14:25:55.364Z,99589.17
2019-03-13T14:28:23.755Z,99612.95
2019-03-13T14:30:52.270Z,99622.36
2019-03-13T14:33:20.701Z,99626.22
2019-03-13T14:35:49.144Z,99608.89
2019-03-13T14:38:17.606Z,99626.72
2019-03-13T14:40:46.146Z,99631.75
2019-03-13T14:43:14.635Z,99638.51
2019-03-13T14:45:43.057Z,99630.84
2019-03-13T14:48:11.469Z,99647.75
2019-03-13T14:50:39.931Z,99646.87
2019-03-13T14:53:08.494Z,99641.34
2019-03-13T14:55:36.922Z,99635.83
2019-03-13T14:58:05.358Z,99639.59
2019-03-13T15:00:33.856Z,99639.09
2019-03-13T15:03:02.318Z,99631.84
2019-03-13T15:05:30.743Z,99647.09
2019-03-13T15:07:59.221Z,99646.61
2019-03-13T15:10:27.653Z,99656.77
2019-03-13T15:12:56.136Z,99653.36
2019-03-13T15:15:24.832Z,99651.22
2019-03-13T15:17:53.721Z,99652.91
2019-03-13T15:20:29.678Z,99658.41
2019-03-13T15:22:58.067Z,99653.77
2019-03-13T15:25:26.688Z,99648.70
2019-03-13T15:27:55.213Z,99653.80
2019-03-13T15:30:33.545Z,99649.99
2019-03-13T15:33:01.997Z,99649.56
2019-03-13T15:35:30.426Z,99654.23
2019-03-13T15:37:58.811Z,99662.28
2019-03-13T15:40:27.265Z,99659.28
2019-03-13T15:42:55.648Z,99649.95
2019-03-13T15:45:26.594Z,99651.22
2019-03-13T15:47:55.169Z,99652.48
2019-03-13T15:50:23.738Z,99654.17
2019-03-13T15:52:52.146Z,99670.27
2019-03-13T15:55:21.201Z,99671.95
2019-03-13T15:57:49.747Z,99673.16
2019-03-13T16:00:28.370Z,99690.02
2019-03-13T16:02:56.871Z,99690.39
2019-03-13T16:05:25.414Z,99697.92
2019-03-13T16:07:53.921Z,99697.44
2019-03-13T16:10:22.691Z,99679.11
2019-03-13T16:12:52.384Z,99673.99
2019-03-13T16:15:27.263Z,99689.20
2019-03-13T16:17:55.724Z,99699.76
2019-03-13T16:20:24.206Z,99721.39
2019-03-13T16:23:02.386Z,99750.14
2019-03-13T16:25:30.957Z,99755.92
2019-03-13T16:27:59.688Z,99714.67
2019-03-13T16:30:42.774Z,99710.33
2019-03-13T16:33:11.170Z,99723.34
2019-03-13T16:35:39.725Z,99729.63
2019-03-13T16:38:08.221Z,99763.38
2019-03-13T16:40:36.782Z,99778.42
2019-03-13T16:43:05.676Z,99767.80
2019-03-13T16:45:34.164Z,99774.50
2019-03-13T16:48:02.727Z,99765.13
2019-03-13T16:50:33.280Z,99768.91
2019-03-13T16:53:01.839Z,99763.38
2019-03-13T16:55:30.312Z,99758.65
2019-03-13T16:57:58.897Z,99743.88
2019-03-13T17:00:28.754Z,99757.41
2019-03-13T17:02:57.291Z,99731.94
2019-03-13T17:05:25.835Z,99756.94
2019-03-13T17:07:54.388Z,99754.86
2019-03-13T17:10:23.937Z,99756.57
2019-03-13T17:12:52.539Z,99755.33
2019-03-13T17:15:22.454Z,99757.08
2019-03-13T17:17:51.231Z,99756.61
2019-03-13T17:20:26.396Z,99760.01
2019-03-13T17:22:55.161Z,99765.98
2019-03-13T17:25:23.885Z,99772.41
2019-03-13T17:27:52.243Z,99769.41
2019-03-13T17:30:22.617Z,99781.20
2019-03-13T17:32:51.181Z,99783.83
2019-03-13T17:35:19.832Z,99785.92
2019-03-13T17:37:48.385Z,99792.27
2019-03-13T17:40:22.377Z,99800.30
2019-03-13T17:42:51.074Z,99794.37
2019-03-13T17:45:25.001Z,99795.24
2019-03-13T17:47:54.284Z,99785.09
2019-03-13T17:50:24.703Z,99793.58
2019-03-13T17:52:53.687Z,99800.37
2019-03-13T17:55:23.684Z,99820.72
2019-03-13T17:57:52.077Z,99816.94
2019-03-13T18:00:42.232Z,99814.42
2019-03-13T18:03:10.691Z,99812.31
2019-03-13T18:05:39.346Z,99817.00
2019-03-13T18:08:07.750Z,99820.39
2019-03-13T18:10:36.210Z,99821.77
2019-03-13T18:13:04.677Z,99824.34
2019-03-13T18:15:33.265Z,99821.88
2019-03-13T18:18:01.745Z,99829.55
2019-03-13T18:20:30.243Z,99843.20
2019-03-13T18:22:58.792Z,99842.41
2019-03-13T18:25:27.603Z,99839.88
2019-03-13T18:27:56.140Z,99850.97
2019-03-13T18:30:29.363Z,99853.61
2019-03-13T18:32:57.886Z,99845.16
2019-03-13T18:35:26.421Z,99854.88
2019-03-13T18:37:54.923Z,99858.61
2019-03-13T18:40:26.906Z,99875.12
2019-03-13T18:42:55.420Z,99874.70
2019-03-13T18:45:31.774Z,99882.33
2019-03-13T18:48:00.415Z,99888.66
2019-03-13T18:50:29.137Z,99896.72
2019-03-13T18:52:57.680Z,99909.47
2019-03-13T18:55:27.630Z,99915.45
2019-03-13T18:57:56.191Z,99927.45
2019-03-13T19:00:33.209Z,99918.70
2019-03-13T19:03:01.693Z,99925.08
2019-03-13T19:05:34.684Z,99927.22
2019-03-13T19:08:03.239Z,99931.02
2019-03-13T19:10:32.840Z,99927.59
2019-03-13T19:13:01.416Z,99937.32
2019-03-13T19:15:30.370Z,99936.55
2019-03-13T19:18:00.733Z,99936.55
2019-03-13T19:20:31.105Z,99942.86
2019-03-13T19:22:59.581Z,99950.07
2019-03-13T19:25:28.126Z,99952.47
2019-03-13T19:27:56.695Z,99966.38
2019-03-13T19:30:37.728Z,99964.18
2019-03-13T19:33:09.514Z,99976.86
2019-03-13T19:35:37.909Z,99973.41
2019-03-13T19:38:11.190Z,99978.36
2019-03-13T19:40:39.898Z,99982.12
2019-03-13T19:43:08.441Z,99985.50
2019-03-13T19:45:44.728Z,99996.07
2019-03-13T19:48:13.234Z,99997.44
2019-03-13T19:50:41.730Z,99994.45
2019-03-13T19:53:10.272Z,99985.13
2019-03-13T19:55:38.819Z,99992.75
2019-03-13T19:58:07.638Z,99995.75
2019-03-13T20:00:36.190Z,99996.20
2019-03-13T20:03:07.668Z,100000.45
2019-03-13T20:05:45.327Z,100004.67
2019-03-13T20:08:06.528Z,100002.96
2019-03-13T20:10:35.055Z,100020.84
2019-03-13T20:13:03.673Z,100038.27
2019-03-13T20:15:34.604Z,100029.81
2019-03-13T20:18:03.090Z,100034.82
2019-03-13T20:20:31.613Z,100043.16
2019-03-13T20:23:05.082Z,100038.94
2019-03-13T20:25:33.667Z,100049.46
2019-03-13T20:28:02.181Z,100045.19
2019-03-13T20:30:30.762Z,100047.20
2019-03-13T20:32:59.237Z,99901.13
2019-03-13T20:35:27.743Z,100056.86
2019-03-13T20:37:56.301Z,100057.27
2019-03-13T20:40:28.310Z,100065.66
2019-03-13T20:42:56.819Z,100062.19
2019-03-13T20:45:29.256Z,100057.91
2019-03-13T20:47:57.790Z,100067.67
2019-03-13T20:50:36.650Z,100069.36
2019-03-13T20:52:56.564Z,100079.08
2019-03-13T20:55:25.228Z,100076.48
2019-03-13T20:57:53.741Z,100080.20
2019-03-13T21:00:26.199Z,100093.72
2019-03-13T21:02:56.796Z,100102.61
2019-03-13T21:05:25.582Z,100104.73
2019-03-13T21:07:54.565Z,100101.28
2019-03-13T21:10:23.102Z,100105.91
2019-03-13T21:12:51.667Z,100106.73
2019-03-13T21:15:24.584Z,100110.55
2019-03-13T21:17:53.045Z,100108.45
2019-03-13T21:20:21.697Z,100117.39
2019-03-13T21:22:50.191Z,100117.84
2019-03-13T21:25:25.688Z,100116.54
2019-03-13T21:27:54.250Z,100122.00
2019-03-13T21:30:29.264Z,100123.74
2019-03-13T21:32:58.369Z,100125.04
2019-03-13T21:35:26.904Z,100127.26
2019-03-13T21:37:55.300Z,100131.57
2019-03-13T21:40:26.058Z,100137.00
2019-03-13T21:42:55.283Z,100127.64
2019-03-13T21:45:24.449Z,100133.22
2019-03-13T21:47:53.034Z,100142.49
2019-03-13T21:50:21.603Z,100143.34
2019-03-13T21:52:50.017Z,100143.77
2019-03-13T21:55:19.109Z,100145.50
2019-03-13T21:57:47.733Z,100149.78
2019-03-13T22:00:21.734Z,100159.12
2019-03-13T22:02:50.478Z,100162.10
2019-03-13T22:05:25.692Z,100168.00
2019-03-13T22:07:49.337Z,100166.77
2019-03-13T22:10:19.302Z,100168.83
2019-03-13T22:12:47.866Z,100171.28
2019-03-13T22:15:20.697Z,100175.41
2019-03-13T22:17:49.241Z,100174.90
2019-03-13T22:20:18.917Z,100174.84
2019-03-13T22:22:47.393Z,100180.36
2019-03-13T22:25:17.307Z,100183.31
2019-03-13T22:27:45.837Z,100191.02
2019-03-13T22:30:24.396Z,100185.97
2019-03-13T22:32:53.223Z,100190.58
2019-03-13T22:35:21.714Z,100192.67
2019-03-13T22:37:50.117Z,99889.30
2019-03-13T22:40:19.503Z,100196.67
2019-03-13T22:42:47.912Z,100201.34
2019-03-13T22:45:20.633Z,100203.84
2019-03-13T22:47:49.146Z,100206.83
2019-03-13T22:50:22.673Z,100204.73
2019-03-13T22:52:51.154Z,100198.35
2019-03-13T22:55:19.843Z,100212.80
2019-03-13T22:57:48.340Z,100205.62
2019-03-13T23:00:53.040Z,100215.75
2019-03-13T23:03:23.216Z,100220.95
2019-03-13T23:05:51.765Z,100213.78
2019-03-13T23:08:20.282Z,100216.66
2019-03-13T23:10:48.966Z,100218.34
2019-03-13T23:13:17.796Z,100223.48
2019-03-13T23:15:46.677Z,100232.82
2019-03-13T23:18:18.062Z,100232.92
2019-03-13T23:20:45.429Z,100240.98
2019-03-13T23:23:13.866Z,100239.84
2019-03-13T23:25:42.252Z,100241.68
2019-03-13T23:28:10.668Z,100244.22
2019-03-13T23:30:39.079Z,100251.33
2019-03-13T23:33:07.608Z,100265.75
2019-03-13T23:35:36.106Z,100286.48
2019-03-13T23:38:05.152Z,100267.05
2019-03-13T23:40:33.700Z,100259.23
2019-03-13T23:43:02.068Z,100263.33
2019-03-13T23:45:30.506Z,100256.88
2019-03-13T23:47:59.060Z,100255.14
2019-03-13T23:50:27.470Z,100261.86
2019-03-13T23:52:55.859Z,100270.72
2019-03-13T23:55:24.347Z,100263.55
2019-03-13T23:57:52.827Z,100276.23
